Time;durP1;ratioP1;P1;durP2;ratioP2;P2;SDS_P1;SDS_P2;PMS_P1;PMS_P2;Temp;Humidity;BMP_temperature;BMP_pressure;BME280_temperature;BME280_humidity;BME280_pressure;Samples;Min_cycle;Max_cycle;Signal;HPM_P1;HPM_P2
2022/05/08 00:01:15;;;;;;;7.13;4.38;;;;;;;;;;5035320;28;20196;-42
2022/05/08 00:03:43;;;;;;;13.27;4.95;;;;;;;;;;5035392;28;20213;-42
2022/05/08 00:06:11;;;;;;;8.68;4.35;;;;;;;;;;5035376;28;20270;-42
2022/05/08 00:08:38;;;;;;;10.18;4.72;;;;;;;;;;5035203;28;20299;-42
2022/05/08 00:11:11;;;;;;;10.40;4.60;;;;;;;;;;5034995;28;20204;-42
2022/05/08 00:13:38;;;;;;;6.30;4.47;;;;;;;;;;5035031;28;20212;-42
2022/05/08 00:16:05;;;;;;;9.18;4.72;;;;;;;;;;5035523;28;20185;-42
2022/05/08 00:18:32;;;;;;;8.52;3.88;;;;;;;;;;5035189;28;20219;-43
2022/05/08 00:20:59;;;;;;;7.28;5.05;;;;;;;;;;5035069;28;20207;-44
2022/05/08 00:23:26;;;;;;;7.22;4.47;;;;;;;;;;5035052;28;20267;-43
2022/05/08 00:25:55;;;;;;;10.82;5.03;;;;;;;;;;5035252;28;20576;-44
2022/05/08 00:28:22;;;;;;;8.85;4.55;;;;;;;;;;5035081;28;20201;-44
2022/05/08 00:30:49;;;;;;;12.00;4.85;;;;;;;;;;5035087;28;20262;-42
2022/05/08 00:33:16;;;;;;;8.45;4.72;;;;;;;;;;5034928;28;20205;-40
2022/05/08 00:35:43;;;;;;;8.98;4.78;;;;;;;;;;5034953;28;20287;-40
2022/05/08 00:38:11;;;;;;;7.78;4.43;;;;;;;;;;5034949;28;20586;-41
2022/05/08 00:40:38;;;;;;;13.38;4.93;;;;;;;;;;5035014;28;20201;-41
2022/05/08 00:43:43;;;;;;;7.95;5.20;;;;;;;;;;5035350;28;20224;-41
2022/05/08 00:46:12;;;;;;;12.10;4.75;;;;;;;;;;4997303;28;20532;-42
2022/05/08 00:48:44;;;;;;;9.27;4.10;;;;;;;;;;5013340;28;20624;-40
2022/05/08 00:51:13;;;;;;;6.40;3.90;;;;;;;;;;5013388;28;20240;-40
2022/05/08 00:53:42;;;;;;;7.97;4.53;;;;;;;;;;4997211;28;20197;-40
2022/05/08 00:56:12;;;;;;;7.97;5.53;;;;;;;;;;5013389;28;20262;-44
2022/05/08 00:58:40;;;;;;;11.15;5.60;;;;;;;;;;5013718;28;20205;-42
2022/05/08 01:01:11;;;;;;;11.10;5.78;;;;;;;;;;5013850;28;20535;-41
2022/05/08 01:03:39;;;;;;;7.82;5.00;;;;;;;;;;5013627;28;20224;-42
2022/05/08 01:06:11;;;;;;;14.75;5.07;;;;;;;;;;5013686;28;20306;-42
2022/05/08 01:08:41;;;;;;;7.32;5.10;;;;;;;;;;5013399;28;20216;-42
2022/05/08 01:11:09;;;;;;;8.32;5.22;;;;;;;;;;5013382;28;20213;-41
2022/05/08 01:13:37;;;;;;;10.25;6.03;;;;;;;;;;5013237;28;20206;-42
2022/05/08 01:16:30;;;;;;;9.27;5.53;;;;;;;;;;5016307;28;20209;-42
2022/05/08 01:18:59;;;;;;;8.70;5.68;;;;;;;;;;5033411;28;20201;-42
2022/05/08 01:21:35;;;;;;;9.48;5.45;;;;;;;;;;5034852;28;20224;-42
2022/05/08 01:24:03;;;;;;;9.10;5.13;;;;;;;;;;5035102;28;20215;-43
2022/05/08 01:26:30;;;;;;;10.68;4.47;;;;;;;;;;5039196;28;20201;-42
2022/05/08 01:28:57;;;;;;;8.80;5.15;;;;;;;;;;5038159;28;20201;-42
2022/05/08 01:31:24;;;;;;;14.00;6.20;;;;;;;;;;5038511;28;20196;-41
2022/05/08 01:33:51;;;;;;;9.90;5.82;;;;;;;;;;5038008;28;20655;-42
2022/05/08 01:36:18;;;;;;;7.22;5.60;;;;;;;;;;5038137;28;20247;-42
2022/05/08 01:38:46;;;;;;;12.95;8.05;;;;;;;;;;5038041;28;20215;-43
2022/05/08 01:41:13;;;;;;;10.02;5.82;;;;;;;;;;5038091;28;20582;-42
2022/05/08 01:43:41;;;;;;;7.05;5.30;;;;;;;;;;5038454;28;20274;-42
2022/05/08 01:46:10;;;;;;;12.98;7.63;;;;;;;;;;5037856;28;20228;-42
2022/05/08 01:48:38;;;;;;;17.02;10.73;;;;;;;;;;5038013;28;20223;-42
2022/05/08 01:51:05;;;;;;;18.88;12.25;;;;;;;;;;5038243;28;20323;-42
2022/05/08 01:53:33;;;;;;;18.10;11.27;;;;;;;;;;5038337;28;20201;-42
2022/05/08 01:56:07;;;;;;;17.10;11.45;;;;;;;;;;5037666;28;20208;-42
2022/05/08 01:58:34;;;;;;;21.60;12.35;;;;;;;;;;5038091;28;20201;-42
2022/05/08 02:01:04;;;;;;;17.38;12.77;;;;;;;;;;5037707;28;20211;-42
2022/05/08 02:03:32;;;;;;;17.85;12.05;;;;;;;;;;5037620;28;20631;-42
2022/05/08 02:05:59;;;;;;;17.85;12.82;;;;;;;;;;5038171;28;20286;-42
2022/05/08 02:08:27;;;;;;;17.80;11.57;;;;;;;;;;5037636;28;20207;-42
2022/05/08 02:10:54;;;;;;;20.52;10.15;;;;;;;;;;5037227;28;20208;-42
2022/05/08 02:13:21;;;;;;;16.23;10.82;;;;;;;;;;5037156;28;20201;-43
2022/05/08 02:15:48;;;;;;;22.13;12.43;;;;;;;;;;5037161;28;20225;-43
2022/05/08 02:18:15;;;;;;;22.52;12.77;;;;;;;;;;5036986;28;20215;-42
2022/05/08 02:20:44;;;;;;;18.70;12.13;;;;;;;;;;5031866;28;20198;-42
2022/05/08 02:23:12;;;;;;;20.23;12.00;;;;;;;;;;5031556;28;20521;-43
2022/05/08 02:25:39;;;;;;;16.17;12.38;;;;;;;;;;5036736;28;20236;-42
2022/05/08 02:28:06;;;;;;;19.13;13.25;;;;;;;;;;5036836;28;20196;-42
2022/05/08 02:30:33;;;;;;;21.08;12.40;;;;;;;;;;5036592;28;20205;-42
2022/05/08 02:33:00;;;;;;;20.58;13.13;;;;;;;;;;5036551;28;20200;-43
2022/05/08 02:35:28;;;;;;;17.60;12.13;;;;;;;;;;5036433;28;20204;-42
2022/05/08 02:37:55;;;;;;;23.33;11.73;;;;;;;;;;5036774;28;20274;-42
2022/05/08 02:40:24;;;;;;;20.30;11.43;;;;;;;;;;5036340;28;20647;-43
2022/05/08 02:42:52;;;;;;;17.67;10.98;;;;;;;;;;5036341;28;20209;-43
2022/05/08 02:45:20;;;;;;;16.88;11.57;;;;;;;;;;5036980;28;20346;-45
2022/05/08 02:47:48;;;;;;;21.40;12.00;;;;;;;;;;5036395;28;20640;-42
2022/05/08 02:50:15;;;;;;;18.30;11.15;;;;;;;;;;5036172;28;20683;-42
2022/05/08 02:52:43;;;;;;;13.80;9.68;;;;;;;;;;5035408;28;20204;-43
2022/05/08 03:00:45;;;;;;;14.18;10.93;;;;;;;;;;5036372;28;20283;-42
2022/05/08 03:03:13;;;;;;;21.60;12.48;;;;;;;;;;5036165;28;20208;-42
2022/05/08 03:05:42;;;;;;;18.92;11.55;;;;;;;;;;5036014;28;20224;-43
2022/05/08 03:08:11;;;;;;;20.00;11.38;;;;;;;;;;5036148;28;20212;-42
2022/05/08 03:13:23;;;;;;;17.40;11.40;;;;;;;;;;5036091;28;20204;-42
2022/05/08 03:15:51;;;;;;;14.32;10.27;;;;;;;;;;5035829;28;20212;-43
2022/05/08 03:18:21;;;;;;;15.88;10.80;;;;;;;;;;5035134;28;20243;-42
2022/05/08 03:20:49;;;;;;;15.50;11.10;;;;;;;;;;5036469;28;20204;-42
2022/05/08 03:23:16;;;;;;;19.38;11.32;;;;;;;;;;5036475;28;20274;-42
2022/05/08 03:25:43;;;;;;;16.45;10.85;;;;;;;;;;5035943;28;20315;-42
2022/05/08 03:28:15;;;;;;;19.90;11.80;;;;;;;;;;5036256;28;20208;-42
2022/05/08 03:30:44;;;;;;;13.45;9.95;;;;;;;;;;5035966;28;20652;-42
2022/05/08 03:33:12;;;;;;;18.90;11.23;;;;;;;;;;5035719;28;20259;-42
2022/05/08 03:35:40;;;;;;;14.68;10.88;;;;;;;;;;5035915;28;20595;-42
2022/05/08 03:38:08;;;;;;;15.82;11.25;;;;;;;;;;5036123;28;20207;-42
2022/05/08 03:40:36;;;;;;;17.00;11.48;;;;;;;;;;5036162;28;20204;-42
2022/05/08 03:43:03;;;;;;;15.55;11.73;;;;;;;;;;5035573;28;20262;-42
2022/05/08 03:45:31;;;;;;;16.38;11.38;;;;;;;;;;5035398;28;20229;-43
2022/05/08 03:48:00;;;;;;;17.38;11.88;;;;;;;;;;5034720;28;20616;-43
2022/05/08 03:50:29;;;;;;;16.15;10.95;;;;;;;;;;5035583;28;20233;-43
2022/05/08 03:52:57;;;;;;;19.13;11.05;;;;;;;;;;5035377;28;20212;-43
2022/05/08 03:55:24;;;;;;;14.95;11.02;;;;;;;;;;5035685;28;20574;-41
2022/05/08 03:57:51;;;;;;;17.15;11.52;;;;;;;;;;5035315;28;20642;-43
2022/05/08 04:00:19;;;;;;;15.27;10.23;;;;;;;;;;5035232;28;20208;-42
2022/05/08 04:02:46;;;;;;;15.35;10.48;;;;;;;;;;5036006;28;20201;-42
2022/05/08 04:05:14;;;;;;;14.02;9.73;;;;;;;;;;5032636;28;20226;-43
2022/05/08 04:07:41;;;;;;;19.00;10.85;;;;;;;;;;5029370;28;20641;-42
2022/05/08 04:10:15;;;;;;;14.13;9.98;;;;;;;;;;5032125;28;20687;-42
2022/05/08 04:12:43;;;;;;;16.27;9.65;;;;;;;;;;5028361;28;20655;-45
2022/05/08 04:17:58;;;;;;;14.88;9.35;;;;;;;;;;5032920;28;20204;-41
2022/05/08 04:20:26;;;;;;;14.68;9.52;;;;;;;;;;5033600;28;20674;-44
2022/05/08 04:25:39;;;;;;;14.57;9.45;;;;;;;;;;5031013;28;20217;-42
2022/05/08 04:28:06;;;;;;;16.10;9.95;;;;;;;;;;5032525;28;20236;-43
2022/05/08 04:30:34;;;;;;;17.60;11.13;;;;;;;;;;5033936;28;20197;-42
2022/05/08 04:33:02;;;;;;;15.65;11.00;;;;;;;;;;5028048;28;20201;-41
2022/05/08 04:35:29;;;;;;;15.65;11.07;;;;;;;;;;5028527;28;20256;-42
2022/05/08 04:38:01;;;;;;;16.92;10.85;;;;;;;;;;5033502;28;20288;-41
2022/05/08 04:40:29;;;;;;;15.27;11.23;;;;;;;;;;5033259;28;20759;-42
2022/05/08 04:42:57;;;;;;;14.82;10.50;;;;;;;;;;5030775;28;20209;-43
2022/05/08 04:45:24;;;;;;;16.42;11.45;;;;;;;;;;5029393;28;20216;-42
2022/05/08 04:47:55;;;;;;;17.15;11.23;;;;;;;;;;5027376;28;20620;-42
2022/05/08 04:50:22;;;;;;;15.85;10.85;;;;;;;;;;5028563;28;20228;-43
2022/05/08 04:52:49;;;;;;;17.15;11.95;;;;;;;;;;5033059;28;20329;-45
2022/05/08 04:55:16;;;;;;;18.08;11.38;;;;;;;;;;5025980;28;20208;-43
2022/05/08 04:57:43;;;;;;;18.13;11.77;;;;;;;;;;5019525;28;20267;-43
2022/05/08 05:00:11;;;;;;;21.98;11.23;;;;;;;;;;5023466;28;20192;-43
2022/05/08 05:02:38;;;;;;;16.50;11.25;;;;;;;;;;5027215;28;20667;-42
2022/05/08 05:05:06;;;;;;;17.10;11.68;;;;;;;;;;5019133;28;20284;-42
2022/05/08 05:07:33;;;;;;;15.15;10.27;;;;;;;;;;5024632;28;20200;-42
2022/05/08 05:10:00;;;;;;;25.10;11.00;;;;;;;;;;5036772;28;20526;-46
2022/05/08 05:12:28;;;;;;;16.73;10.95;;;;;;;;;;5037373;28;20212;-45
2022/05/08 05:14:55;;;;;;;15.48;10.90;;;;;;;;;;5034391;28;20258;-44
2022/05/08 05:17:23;;;;;;;19.08;10.63;;;;;;;;;;5035948;28;20262;-44
2022/05/08 05:19:51;;;;;;;15.13;10.25;;;;;;;;;;5036291;28;20262;-45
2022/05/08 05:22:22;;;;;;;14.30;10.00;;;;;;;;;;5037296;28;20184;-41
2022/05/08 05:24:58;;;;;;;13.65;9.60;;;;;;;;;;5026417;28;20687;-42
2022/05/08 05:27:25;;;;;;;14.75;9.50;;;;;;;;;;5031291;28;20312;-43
2022/05/08 05:29:52;;;;;;;13.88;9.60;;;;;;;;;;5033532;28;20280;-42
2022/05/08 05:32:20;;;;;;;15.32;9.80;;;;;;;;;;5038353;28;20224;-41
2022/05/08 05:34:47;;;;;;;15.20;9.77;;;;;;;;;;5044394;28;20601;-42
2022/05/08 05:37:18;;;;;;;15.48;9.60;;;;;;;;;;5037203;28;20307;-44
2022/05/08 05:39:46;;;;;;;11.55;8.85;;;;;;;;;;5036700;28;20225;-45
2022/05/08 05:42:13;;;;;;;12.98;9.30;;;;;;;;;;5037053;28;20228;-45
2022/05/08 05:44:40;;;;;;;14.57;9.85;;;;;;;;;;5036695;28;20880;-43
2022/05/08 05:49:52;;;;;;;10.63;8.00;;;;;;;;;;5036259;28;20236;-42
2022/05/08 05:52:20;;;;;;;10.82;8.95;;;;;;;;;;5035721;28;20251;-46
2022/05/08 05:54:49;;;;;;;11.68;8.45;;;;;;;;;;5036302;28;20232;-43
2022/05/08 05:57:19;;;;;;;13.02;7.18;;;;;;;;;;5036435;28;20566;-45
2022/05/08 05:59:47;;;;;;;11.80;7.55;;;;;;;;;;5036379;28;20549;-41
2022/05/08 06:02:14;;;;;;;12.70;8.02;;;;;;;;;;5036554;28;20232;-41
2022/05/08 06:04:41;;;;;;;8.10;5.63;;;;;;;;;;5036706;28;20315;-43
2022/05/08 06:07:09;;;;;;;9.70;5.57;;;;;;;;;;5033242;28;20220;-44
2022/05/08 06:09:36;;;;;;;7.55;5.80;;;;;;;;;;5032777;28;20663;-43
2022/05/08 06:12:03;;;;;;;10.82;5.30;;;;;;;;;;5036618;28;20741;-42
2022/05/08 06:14:31;;;;;;;8.95;6.00;;;;;;;;;;5035266;28;20236;-44
2022/05/08 06:16:58;;;;;;;9.45;5.10;;;;;;;;;;5035402;28;20221;-41
2022/05/08 06:19:25;;;;;;;9.48;6.15;;;;;;;;;;5030114;28;20217;-41
2022/05/08 06:21:53;;;;;;;9.02;6.18;;;;;;;;;;5031555;28;20225;-42
2022/05/08 06:24:20;;;;;;;11.35;6.65;;;;;;;;;;5025832;28;20332;-40
2022/05/08 06:26:47;;;;;;;8.32;6.70;;;;;;;;;;5016463;28;20237;-42
2022/05/08 06:29:15;;;;;;;11.88;6.95;;;;;;;;;;5029710;28;20231;-44
2022/05/08 06:31:42;;;;;;;8.98;6.47;;;;;;;;;;5035895;28;20675;-43
2022/05/08 06:34:19;;;;;;;15.32;6.45;;;;;;;;;;5035357;28;20228;-43
2022/05/08 06:36:46;;;;;;;9.63;7.40;;;;;;;;;;5036215;28;20311;-45
2022/05/08 06:39:13;;;;;;;14.50;7.03;;;;;;;;;;5037090;28;20290;-45
2022/05/08 06:41:41;;;;;;;10.25;7.10;;;;;;;;;;5055724;28;20227;-43
2022/05/08 06:44:10;;;;;;;9.88;6.85;;;;;;;;;;5056038;28;20315;-42
2022/05/08 06:46:37;;;;;;;7.45;4.88;;;;;;;;;;5055737;28;20604;-43
2022/05/08 06:49:06;;;;;;;7.55;4.75;;;;;;;;;;5047163;28;20663;-43
2022/05/08 06:51:34;;;;;;;8.80;5.00;;;;;;;;;;5035612;28;20306;-45
2022/05/08 06:54:01;;;;;;;7.35;5.57;;;;;;;;;;5035349;28;20667;-43
2022/05/08 06:56:31;;;;;;;8.98;5.60;;;;;;;;;;5035282;28;20231;-43
2022/05/08 07:01:44;;;;;;;9.93;6.97;;;;;;;;;;5034331;28;20228;-42
2022/05/08 07:04:12;;;;;;;10.93;5.40;;;;;;;;;;5032848;28;20193;-46
2022/05/08 07:06:39;;;;;;;12.15;6.78;;;;;;;;;;5035881;28;20224;-46
2022/05/08 07:09:15;;;;;;;10.70;6.40;;;;;;;;;;5035937;28;20642;-45
2022/05/08 07:11:45;;;;;;;9.50;6.65;;;;;;;;;;5036266;28;20189;-45
2022/05/08 07:14:16;;;;;;;8.73;6.45;;;;;;;;;;5036075;28;20193;-44
2022/05/08 07:16:43;;;;;;;9.90;6.50;;;;;;;;;;5036182;28;20204;-45
2022/05/08 07:19:11;;;;;;;10.02;6.70;;;;;;;;;;5030751;28;20216;-45
2022/05/08 07:21:38;;;;;;;12.38;7.00;;;;;;;;;;5033314;28;20224;-47
2022/05/08 07:24:06;;;;;;;10.48;7.00;;;;;;;;;;5034470;28;20588;-45
2022/05/08 07:26:33;;;;;;;9.23;6.97;;;;;;;;;;5035243;28;20946;-44
2022/05/08 07:29:00;;;;;;;12.60;7.57;;;;;;;;;;5034500;28;20229;-45
2022/05/08 07:31:27;;;;;;;10.35;7.38;;;;;;;;;;5047011;28;20225;-44
2022/05/08 07:36:43;;;;;;;10.10;6.80;;;;;;;;;;5033332;28;20236;-45
2022/05/08 07:39:10;;;;;;;9.00;5.50;;;;;;;;;;5034538;28;20224;-46
2022/05/08 07:41:37;;;;;;;13.40;6.70;;;;;;;;;;5034436;28;20208;-46
2022/05/08 07:44:04;;;;;;;10.25;7.00;;;;;;;;;;5031341;28;20274;-45
2022/05/08 07:46:31;;;;;;;8.77;5.90;;;;;;;;;;5033637;28;20226;-45
2022/05/08 07:48:59;;;;;;;7.85;6.05;;;;;;;;;;5033863;28;20238;-45
2022/05/08 07:51:26;;;;;;;8.45;6.40;;;;;;;;;;5034079;28;20239;-45
2022/05/08 07:53:53;;;;;;;9.30;6.38;;;;;;;;;;5034468;28;20231;-44
2022/05/08 07:56:20;;;;;;;10.13;6.25;;;;;;;;;;5034577;28;20232;-45
2022/05/08 07:58:47;;;;;;;9.68;6.32;;;;;;;;;;5034152;28;20331;-46
2022/05/08 08:01:14;;;;;;;9.35;5.82;;;;;;;;;;5033266;28;20227;-46
2022/05/08 08:03:42;;;;;;;7.93;5.80;;;;;;;;;;5033880;28;20343;-45
2022/05/08 08:06:11;;;;;;;7.65;5.63;;;;;;;;;;5047566;28;20304;-45
2022/05/08 08:08:39;;;;;;;9.65;6.00;;;;;;;;;;5031138;28;20311;-45
2022/05/08 08:11:07;;;;;;;8.43;6.07;;;;;;;;;;5031136;28;20319;-46
2022/05/08 08:13:35;;;;;;;12.45;6.13;;;;;;;;;;5031759;28;20228;-45
2022/05/08 08:16:06;;;;;;;5.38;4.32;;;;;;;;;;5029662;28;20224;-45
2022/05/08 08:18:36;;;;;;;8.15;4.60;;;;;;;;;;5031748;28;20216;-45
2022/05/08 08:21:12;;;;;;;7.30;5.38;;;;;;;;;;5032290;28;20239;-45
2022/05/08 08:23:41;;;;;;;8.85;5.18;;;;;;;;;;5032126;28;20228;-45
2022/05/08 08:26:12;;;;;;;7.88;5.03;;;;;;;;;;5031809;28;20259;-44
2022/05/08 08:28:40;;;;;;;10.77;5.72;;;;;;;;;;5031806;28;20237;-45
2022/05/08 08:31:09;;;;;;;7.68;5.15;;;;;;;;;;5031681;28;20302;-45
2022/05/08 08:33:40;;;;;;;8.75;5.90;;;;;;;;;;5031474;28;20307;-46
2022/05/08 08:36:08;;;;;;;9.73;7.72;;;;;;;;;;5030992;28;20251;-45
2022/05/08 08:38:36;;;;;;;10.60;7.25;;;;;;;;;;5031214;28;20290;-43
2022/05/08 08:41:05;;;;;;;12.45;8.25;;;;;;;;;;5030162;28;20216;-45
2022/05/08 08:47:42;;;;;;;9.88;6.20;;;;;;;;;;5029440;28;20220;-43
2022/05/08 08:49:31;;;;;;;15.40;9.65;;;;;;;;;;5007369;28;20237;-43
2022/05/08 08:51:58;;;;;;;13.35;8.73;;;;;;;;;;4991293;28;20236;-43
2022/05/08 08:54:25;;;;;;;10.25;8.05;;;;;;;;;;5016413;28;20221;-46
2022/05/08 08:56:53;;;;;;;8.65;7.55;;;;;;;;;;5020062;28;20221;-45
2022/05/08 08:59:27;;;;;;;10.73;6.05;;;;;;;;;;5014670;28;20303;-43
2022/05/08 09:01:55;;;;;;;9.57;6.15;;;;;;;;;;5011408;28;20256;-46
2022/05/08 09:04:23;;;;;;;8.93;6.35;;;;;;;;;;5022306;28;20232;-44
2022/05/08 09:06:50;;;;;;;9.38;5.85;;;;;;;;;;5051766;28;20232;-43
2022/05/08 09:09:35;;;;;;;9.13;5.30;;;;;;;;;;5020493;28;20236;-43
2022/05/08 09:12:16;;;;;;;7.45;6.00;;;;;;;;;;5014725;28;20228;-44
2022/05/08 09:14:43;;;;;;;10.88;4.90;;;;;;;;;;5022432;28;20233;-44
2022/05/08 09:17:10;;;;;;;10.90;5.40;;;;;;;;;;5011718;28;20291;-45
2022/05/08 09:19:38;;;;;;;10.88;5.72;;;;;;;;;;5018577;28;20225;-44
2022/05/08 09:22:12;;;;;;;6.43;5.00;;;;;;;;;;5031457;28;20607;-43
2022/05/08 09:24:52;;;;;;;6.80;4.57;;;;;;;;;;5031975;28;20311;-44
2022/05/08 09:27:19;;;;;;;6.82;4.82;;;;;;;;;;5031347;28;20678;-43
2022/05/08 09:29:46;;;;;;;8.00;4.75;;;;;;;;;;5031818;28;20232;-44
2022/05/08 09:32:42;;;;;;;6.53;4.75;;;;;;;;;;5031323;28;20224;-43
2022/05/08 09:35:11;;;;;;;7.10;5.10;;;;;;;;;;5044029;28;20250;-45
2022/05/08 09:37:54;;;;;;;6.80;5.00;;;;;;;;;;5047864;28;21032;-43
2022/05/08 09:40:22;;;;;;;6.50;4.90;;;;;;;;;;5027990;28;20243;-44
2022/05/08 09:42:49;;;;;;;7.55;4.20;;;;;;;;;;5030626;28;20235;-45
2022/05/08 09:45:16;;;;;;;5.88;4.80;;;;;;;;;;5029695;28;20232;-45
2022/05/08 09:47:48;;;;;;;12.23;4.45;;;;;;;;;;5034344;28;20240;-43
2022/05/08 09:50:17;;;;;;;9.07;4.00;;;;;;;;;;5033368;28;20244;-44
2022/05/08 09:52:45;;;;;;;5.32;3.67;;;;;;;;;;5036814;28;20224;-43
2022/05/08 09:55:17;;;;;;;4.95;3.55;;;;;;;;;;5037147;28;20236;-43
2022/05/08 09:57:44;;;;;;;7.13;3.95;;;;;;;;;;5036707;28;20229;-44
2022/05/08 10:00:13;;;;;;;4.80;2.88;;;;;;;;;;5036833;28;20225;-44
2022/05/08 10:02:45;;;;;;;4.90;3.20;;;;;;;;;;5035351;28;20224;-47
2022/05/08 10:05:14;;;;;;;8.52;3.30;;;;;;;;;;5036562;28;20227;-44
2022/05/08 10:07:41;;;;;;;5.50;3.38;;;;;;;;;;5031282;28;20244;-44
2022/05/08 10:15:48;;;;;;;4.53;3.63;;;;;;;;;;5006028;28;20225;-45
2022/05/08 10:18:23;;;;;;;4.05;3.20;;;;;;;;;;5045984;28;20278;-43
2022/05/08 10:21:07;;;;;;;5.22;3.60;;;;;;;;;;5016481;28;20222;-43
2022/05/08 10:23:41;;;;;;;5.95;3.28;;;;;;;;;;5016561;28;20290;-44
2022/05/08 10:26:14;;;;;;;6.85;3.47;;;;;;;;;;5016359;28;20225;-43
2022/05/08 10:29:12;;;;;;;6.25;4.07;;;;;;;;;;5016214;28;20676;-45
2022/05/08 10:31:42;;;;;;;9.60;4.60;;;;;;;;;;5015955;28;20265;-45
2022/05/08 10:34:11;;;;;;;5.50;3.78;;;;;;;;;;5025287;28;20265;-44
2022/05/08 10:36:40;;;;;;;6.07;3.47;;;;;;;;;;5056159;28;20231;-47
2022/05/08 10:39:41;;;;;;;7.25;3.50;;;;;;;;;;5055782;28;20224;-43
2022/05/08 10:42:44;;;;;;;8.98;3.05;;;;;;;;;;5048517;28;20224;-42
2022/05/08 10:45:34;;;;;;;5.00;3.47;;;;;;;;;;5014326;28;20225;-43
2022/05/08 10:48:08;;;;;;;5.60;3.40;;;;;;;;;;5013774;28;20306;-46
2022/05/08 10:50:37;;;;;;;6.78;3.72;;;;;;;;;;5013957;28;20248;-45
2022/05/08 10:53:05;;;;;;;6.95;3.40;;;;;;;;;;5014178;28;20221;-44
2022/05/08 10:55:33;;;;;;;8.95;3.97;;;;;;;;;;5013952;28;20228;-46
2022/05/08 10:58:00;;;;;;;7.93;3.28;;;;;;;;;;5014274;28;20233;-46
2022/05/08 11:00:29;;;;;;;6.82;3.42;;;;;;;;;;5014142;28;20221;-45
2022/05/08 11:03:00;;;;;;;7.18;3.50;;;;;;;;;;5013362;28;20634;-45
2022/05/08 11:05:28;;;;;;;9.05;3.72;;;;;;;;;;4999191;28;20705;-44
2022/05/08 11:07:57;;;;;;;6.40;3.75;;;;;;;;;;4991077;28;20253;-44
2022/05/08 11:10:30;;;;;;;6.57;4.10;;;;;;;;;;4983526;28;20234;-45
2022/05/08 11:13:01;;;;;;;8.85;3.42;;;;;;;;;;4974862;28;20231;-44
2022/05/08 11:15:35;;;;;;;6.32;3.70;;;;;;;;;;4980820;28;20308;-45
2022/05/08 11:18:17;;;;;;;7.40;3.63;;;;;;;;;;4987256;28;20365;-45
2022/05/08 11:20:53;;;;;;;6.65;3.58;;;;;;;;;;4997860;28;20656;-46
2022/05/08 11:23:22;;;;;;;9.82;4.00;;;;;;;;;;5015842;28;20221;-43
2022/05/08 11:25:52;;;;;;;6.43;4.30;;;;;;;;;;5015028;28;20225;-46
2022/05/08 11:28:26;;;;;;;6.95;3.92;;;;;;;;;;5015464;28;20660;-45
2022/05/08 11:30:55;;;;;;;9.90;3.97;;;;;;;;;;5014761;28;20687;-46
2022/05/08 11:36:26;;;;;;;5.97;4.20;;;;;;;;;;5033743;28;20725;-44
2022/05/08 11:38:55;;;;;;;6.47;4.07;;;;;;;;;;5031649;28;20224;-43
2022/05/08 11:41:57;;;;;;;6.72;4.20;;;;;;;;;;5033720;28;20535;-45
2022/05/08 11:44:24;;;;;;;7.95;4.20;;;;;;;;;;5012163;28;20216;-43
2022/05/08 11:46:56;;;;;;;7.78;4.20;;;;;;;;;;5011824;28;20299;-45
2022/05/08 11:49:27;;;;;;;10.23;3.78;;;;;;;;;;5011818;28;20656;-46
2022/05/08 11:52:04;;;;;;;6.22;4.32;;;;;;;;;;5012060;28;20332;-46
2022/05/08 11:54:34;;;;;;;9.73;3.90;;;;;;;;;;5013250;28;20683;-45
2022/05/08 11:57:19;;;;;;;6.18;3.90;;;;;;;;;;5013048;28;20265;-45
2022/05/08 11:59:52;;;;;;;6.60;4.13;;;;;;;;;;5013121;28;20324;-47
2022/05/08 12:02:37;;;;;;;11.30;4.15;;;;;;;;;;5026976;28;20563;-44
2022/05/08 12:05:05;;;;;;;8.48;5.18;;;;;;;;;;5032781;28;20220;-45
2022/05/08 12:07:40;;;;;;;7.72;5.30;;;;;;;;;;5029784;28;20240;-44
2022/05/08 12:10:09;;;;;;;6.90;4.22;;;;;;;;;;5012725;28;20351;-43
2022/05/08 12:12:38;;;;;;;5.85;4.85;;;;;;;;;;5013904;28;20621;-42
2022/05/08 12:15:06;;;;;;;14.75;5.15;;;;;;;;;;4997735;28;20201;-42
2022/05/08 12:17:40;;;;;;;11.63;4.95;;;;;;;;;;5013750;28;20743;-42
2022/05/08 12:20:28;;;;;;;11.82;4.78;;;;;;;;;;5015343;28;20573;-42
2022/05/08 12:23:00;;;;;;;7.43;4.72;;;;;;;;;;5029792;28;20323;-43
2022/05/08 12:25:28;;;;;;;7.18;4.95;;;;;;;;;;5034520;28;20224;-43
2022/05/08 12:27:55;;;;;;;10.07;4.88;;;;;;;;;;5044147;28;20231;-43
2022/05/08 12:30:22;;;;;;;7.82;4.43;;;;;;;;;;5048112;28;20221;-44
2022/05/08 12:32:49;;;;;;;9.27;5.28;;;;;;;;;;5035125;28;20527;-43
2022/05/08 12:35:18;;;;;;;9.40;5.18;;;;;;;;;;5033358;28;20217;-43
2022/05/08 12:37:49;;;;;;;8.52;5.03;;;;;;;;;;5034590;28;20746;-43
2022/05/08 12:40:17;;;;;;;9.45;4.45;;;;;;;;;;5033071;28;20239;-42
2022/05/08 12:42:46;;;;;;;6.68;4.13;;;;;;;;;;5033072;28;20216;-44
2022/05/08 12:45:14;;;;;;;7.13;4.60;;;;;;;;;;5033431;28;20243;-42
2022/05/08 12:47:41;;;;;;;7.63;4.47;;;;;;;;;;5033253;28;20221;-44
2022/05/08 12:50:09;;;;;;;12.30;4.90;;;;;;;;;;5032659;28;20232;-42
2022/05/08 12:52:36;;;;;;;6.20;3.70;;;;;;;;;;5031455;28;20278;-44
2022/05/08 12:55:06;;;;;;;8.88;3.90;;;;;;;;;;5029902;28;20311;-45
2022/05/08 13:00:21;;;;;;;7.13;2.85;;;;;;;;;;5031512;28;20216;-45
2022/05/08 13:02:48;;;;;;;5.03;2.75;;;;;;;;;;5032477;28;20220;-46
2022/05/08 13:05:15;;;;;;;5.00;3.30;;;;;;;;;;5033225;28;20251;-46
2022/05/08 13:07:42;;;;;;;6.28;3.50;;;;;;;;;;5033430;28;20294;-46
2022/05/08 13:10:09;;;;;;;4.95;3.67;;;;;;;;;;5030436;28;20235;-46
2022/05/08 13:12:37;;;;;;;6.95;4.07;;;;;;;;;;5033640;28;20224;-46
2022/05/08 13:15:05;;;;;;;8.57;4.40;;;;;;;;;;5032916;28;20231;-45
2022/05/08 13:17:32;;;;;;;11.50;3.95;;;;;;;;;;5030224;28;20309;-45
2022/05/08 13:20:02;;;;;;;5.90;4.10;;;;;;;;;;5034122;28;20290;-46
2022/05/08 13:22:29;;;;;;;6.07;4.10;;;;;;;;;;5037107;28;20228;-45
2022/05/08 13:24:59;;;;;;;7.53;4.40;;;;;;;;;;5036868;28;20826;-45
2022/05/08 13:27:27;;;;;;;6.65;4.07;;;;;;;;;;5036247;28;20243;-46
2022/05/08 13:29:55;;;;;;;6.32;3.50;;;;;;;;;;5034518;28;20251;-44
2022/05/08 13:32:22;;;;;;;6.30;3.85;;;;;;;;;;5036568;28;20224;-46
2022/05/08 13:34:49;;;;;;;7.78;3.60;;;;;;;;;;5036855;28;20248;-45
2022/05/08 13:37:16;;;;;;;4.00;3.15;;;;;;;;;;5036950;28;20283;-45
2022/05/08 13:39:43;;;;;;;6.70;3.30;;;;;;;;;;5037034;28;20249;-46
2022/05/08 13:42:16;;;;;;;7.53;3.45;;;;;;;;;;5036897;28;20232;-45
2022/05/08 13:44:44;;;;;;;4.95;3.13;;;;;;;;;;5037046;28;20568;-46
2022/05/08 13:47:11;;;;;;;5.30;3.13;;;;;;;;;;5036822;28;20224;-47
2022/05/08 13:49:38;;;;;;;7.03;2.83;;;;;;;;;;5036456;28;20237;-47
2022/05/08 13:52:06;;;;;;;4.60;3.17;;;;;;;;;;5037127;28;20240;-45
2022/05/08 13:54:36;;;;;;;6.45;3.08;;;;;;;;;;5036804;28;20741;-45
2022/05/08 13:57:06;;;;;;;5.25;2.97;;;;;;;;;;5036631;28;20740;-45
2022/05/08 13:59:33;;;;;;;6.85;2.85;;;;;;;;;;5036735;28;20228;-45
2022/05/08 14:02:01;;;;;;;4.15;2.80;;;;;;;;;;5036527;28;20240;-46
2022/05/08 14:04:29;;;;;;;6.53;3.10;;;;;;;;;;5036375;28;21035;-42
2022/05/08 14:06:56;;;;;;;5.70;2.67;;;;;;;;;;5034168;28;20224;-43
2022/05/08 14:09:23;;;;;;;3.78;2.80;;;;;;;;;;5030679;28;20236;-43
2022/05/08 14:11:54;;;;;;;7.78;2.92;;;;;;;;;;5033053;28;20873;-43
2022/05/08 14:14:27;;;;;;;7.55;2.60;;;;;;;;;;5033353;28;20679;-42
2022/05/08 14:17:01;;;;;;;6.20;2.83;;;;;;;;;;5033669;28;20617;-43
2022/05/08 14:19:28;;;;;;;5.03;2.70;;;;;;;;;;5034367;28;20228;-42
2022/05/08 14:21:55;;;;;;;8.27;3.22;;;;;;;;;;5034671;28;20224;-43
2022/05/08 14:24:22;;;;;;;9.80;2.72;;;;;;;;;;5034844;28;20227;-41
2022/05/08 14:26:50;;;;;;;4.10;2.83;;;;;;;;;;5036536;28;20224;-42
2022/05/08 14:29:17;;;;;;;4.93;2.70;;;;;;;;;;5036015;28;20613;-42
2022/05/08 14:37:15;;;;;;;3.03;1.58;;;;;;;;;;5035864;28;20227;-41
2022/05/08 14:39:43;;;;;;;2.00;1.70;;;;;;;;;;5032875;28;20243;-42
2022/05/08 14:42:10;;;;;;;4.03;2.20;;;;;;;;;;5034856;28;20220;-41
2022/05/08 14:44:37;;;;;;;4.57;2.13;;;;;;;;;;5035613;28;20227;-45
2022/05/08 14:47:05;;;;;;;2.95;2.35;;;;;;;;;;5035467;28;20801;-41
2022/05/08 14:49:33;;;;;;;3.75;1.90;;;;;;;;;;5035238;28;20247;-43
2022/05/08 14:52:00;;;;;;;4.07;2.00;;;;;;;;;;5035811;28;20224;-42
2022/05/08 14:54:28;;;;;;;3.25;2.35;;;;;;;;;;5035826;28;20612;-41
2022/05/08 14:56:55;;;;;;;8.40;2.25;;;;;;;;;;5036512;28;20285;-42
2022/05/08 14:59:22;;;;;;;5.45;2.40;;;;;;;;;;5032722;28;20641;-41
2022/05/08 15:01:49;;;;;;;7.85;2.28;;;;;;;;;;5029525;28;20257;-43
2022/05/08 15:04:21;;;;;;;4.55;2.20;;;;;;;;;;5015770;28;20896;-43
2022/05/08 15:06:48;;;;;;;3.30;2.10;;;;;;;;;;5023285;28;20651;-43
2022/05/08 15:09:15;;;;;;;7.20;2.53;;;;;;;;;;5026173;28;20228;-45
2022/05/08 15:11:43;;;;;;;4.03;2.45;;;;;;;;;;5029422;28;20623;-42
2022/05/08 15:14:11;;;;;;;4.68;2.60;;;;;;;;;;5036708;28;20274;-42
2022/05/08 15:16:40;;;;;;;4.18;2.80;;;;;;;;;;5025771;28;20208;-42
2022/05/08 15:19:11;;;;;;;5.75;3.20;;;;;;;;;;5033773;28;20204;-43
2022/05/08 15:21:38;;;;;;;3.78;2.97;;;;;;;;;;5036356;28;20209;-45
2022/05/08 15:24:07;;;;;;;7.40;3.03;;;;;;;;;;5035988;28;20205;-42
2022/05/08 15:26:34;;;;;;;5.28;3.00;;;;;;;;;;5036092;28;20270;-42
2022/05/08 15:29:01;;;;;;;4.78;3.10;;;;;;;;;;5036329;28;20258;-43
2022/05/08 15:31:29;;;;;;;5.57;3.30;;;;;;;;;;5036045;28;20192;-44